map of PSO home
PSO - Airport
Location
City:  San Juan de Pasto, Nariño, Colombia
Near (Alt.):Pasto, Chachagüí
Name:Antonio Nariño Airport
ICAO:SKPS
IATA:PSO

Details
Type:Airport (Aerodrome, Airfield)
Latitude:1°23'46"N (1.396247)
Longitude:77°17'29"W (-77.291477)
Datum:WGS 1984
Elevation:5951 ft (1814 m)
Variation:4.68°W (WMM2015 magnetic declination)
-0.15° annual change
Runways:1
Longest:7585 × 130 ft (2312 × 39.5 m), paved

Time
Time Zone:UTC-5
Local Time:

Weather
METAR:SKPS 251500Z 34006KT 9999 FEW025 19/13 A3019

Related Locations
Nearby:
Farthest:WIJB: 12414 mi / 19979 km
Muara Bungo [Muara Bungo Airport], JA, ID

Find:

   beyond  
but within

Other Information
Maps:
NOTAMs:
Links:
Sources:

  
  • flag of Colombia
  • flag of Nariño
  • flag of San Juan de Pasto
  

Sectional Chart

Flight Planning
at skyvector.com

Satellite Image

Google Maps Satellite view

 

Copyright © 2004-2018 Karl L. Swartz. All rights reserved.
The Great Circle Mapper name and logo are trademarks of the Great Circle Mapper.
All other trademarks mentioned herein belong to their respective owners.
Please see credits for attibutions and further copyright information.

  Follow gcmap on Facebook Follow gcmap on Twitter Follow gcmap on Google+ GCmap on LinkedIn

hCard Microformat

Geo Microformat